sensor_id;sensor_type;location;lat;lon;timestamp;P1;durP1;ratioP1;P2;durP2;ratioP2
10269;SDS011;5180;50.832;5.390;2022-08-21T00:01:11;20.40;;;19.00;;
10269;SDS011;5180;50.832;5.390;2022-08-21T00:03:40;20.13;;;18.73;;
10269;SDS011;5180;50.832;5.390;2022-08-21T00:06:06;19.90;;;18.48;;
10269;SDS011;5180;50.832;5.390;2022-08-21T00:08:32;35.53;;;33.42;;
10269;SDS011;5180;50.832;5.390;2022-08-21T00:10:58;38.65;;;36.17;;
10269;SDS011;5180;50.832;5.390;2022-08-21T00:13:24;34.85;;;32.65;;
10269;SDS011;5180;50.832;5.390;2022-08-21T00:15:49;33.17;;;31.08;;
10269;SDS011;5180;50.832;5.390;2022-08-21T00:18:15;25.83;;;24.17;;
10269;SDS011;5180;50.832;5.390;2022-08-21T00:20:42;19.73;;;18.35;;
10269;SDS011;5180;50.832;5.390;2022-08-21T00:23:09;18.10;;;16.70;;
10269;SDS011;5180;50.832;5.390;2022-08-21T00:25:35;20.80;;;19.42;;
10269;SDS011;5180;50.832;5.390;2022-08-21T00:28:02;29.50;;;27.70;;
10269;SDS011;5180;50.832;5.390;2022-08-21T00:30:30;35.13;;;33.10;;
10269;SDS011;5180;50.832;5.390;2022-08-21T00:32:56;31.90;;;29.75;;
10269;SDS011;5180;50.832;5.390;2022-08-21T00:35:24;33.60;;;31.35;;
10269;SDS011;5180;50.832;5.390;2022-08-21T00:37:56;31.52;;;29.73;;
10269;SDS011;5180;50.832;5.390;2022-08-21T00:40:33;32.13;;;30.30;;
10269;SDS011;5180;50.832;5.390;2022-08-21T00:43:16;30.48;;;28.45;;
10269;SDS011;5180;50.832;5.390;2022-08-21T00:45:43;30.85;;;28.90;;
10269;SDS011;5180;50.832;5.390;2022-08-21T00:48:09;28.55;;;26.67;;
10269;SDS011;5180;50.832;5.390;2022-08-21T00:50:35;28.55;;;26.63;;
10269;SDS011;5180;50.832;5.390;2022-08-21T00:53:06;21.25;;;19.70;;
10269;SDS011;5180;50.832;5.390;2022-08-21T00:55:35;20.25;;;18.95;;
10269;SDS011;5180;50.832;5.390;2022-08-21T00:58:02;20.20;;;18.88;;
10269;SDS011;5180;50.832;5.390;2022-08-21T01:00:31;23.73;;;22.17;;
10269;SDS011;5180;50.832;5.390;2022-08-21T01:03:00;27.05;;;25.08;;
10269;SDS011;5180;50.832;5.390;2022-08-21T01:05:31;22.83;;;21.33;;
10269;SDS011;5180;50.832;5.390;2022-08-21T01:07:57;24.02;;;22.38;;
10269;SDS011;5180;50.832;5.390;2022-08-21T01:10:23;26.88;;;25.23;;
10269;SDS011;5180;50.832;5.390;2022-08-21T01:12:50;23.02;;;21.52;;
10269;SDS011;5180;50.832;5.390;2022-08-21T01:15:17;19.65;;;18.30;;
10269;SDS011;5180;50.832;5.390;2022-08-21T01:17:45;15.98;;;14.93;;
10269;SDS011;5180;50.832;5.390;2022-08-21T01:20:11;15.57;;;14.48;;
10269;SDS011;5180;50.832;5.390;2022-08-21T01:22:37;15.73;;;14.73;;
10269;SDS011;5180;50.832;5.390;2022-08-21T01:25:05;16.48;;;15.23;;
10269;SDS011;5180;50.832;5.390;2022-08-21T01:27:31;16.42;;;15.15;;
10269;SDS011;5180;50.832;5.390;2022-08-21T01:29:59;17.45;;;16.38;;
10269;SDS011;5180;50.832;5.390;2022-08-21T01:32:35;19.23;;;17.92;;
10269;SDS011;5180;50.832;5.390;2022-08-21T01:35:00;15.65;;;14.63;;
10269;SDS011;5180;50.832;5.390;2022-08-21T01:37:27;14.68;;;13.68;;
10269;SDS011;5180;50.832;5.390;2022-08-21T01:39:53;14.68;;;13.43;;
10269;SDS011;5180;50.832;5.390;2022-08-21T01:42:19;13.77;;;12.70;;
10269;SDS011;5180;50.832;5.390;2022-08-21T01:44:47;14.57;;;13.48;;
10269;SDS011;5180;50.832;5.390;2022-08-21T01:47:14;13.60;;;12.80;;
10269;SDS011;5180;50.832;5.390;2022-08-21T01:49:40;12.27;;;11.35;;
10269;SDS011;5180;50.832;5.390;2022-08-21T01:52:07;11.63;;;10.63;;
10269;SDS011;5180;50.832;5.390;2022-08-21T01:54:32;11.45;;;10.30;;
10269;SDS011;5180;50.832;5.390;2022-08-21T01:56:58;11.48;;;10.73;;
10269;SDS011;5180;50.832;5.390;2022-08-21T01:59:25;12.45;;;11.55;;
10269;SDS011;5180;50.832;5.390;2022-08-21T02:01:51;11.88;;;11.15;;
10269;SDS011;5180;50.832;5.390;2022-08-21T02:04:19;15.55;;;14.48;;
10269;SDS011;5180;50.832;5.390;2022-08-21T02:06:45;19.75;;;18.35;;
10269;SDS011;5180;50.832;5.390;2022-08-21T02:09:12;20.67;;;19.17;;
10269;SDS011;5180;50.832;5.390;2022-08-21T02:11:39;16.70;;;15.63;;
10269;SDS011;5180;50.832;5.390;2022-08-21T02:14:14;17.80;;;16.65;;
10269;SDS011;5180;50.832;5.390;2022-08-21T02:16:41;26.55;;;24.77;;
10269;SDS011;5180;50.832;5.390;2022-08-21T02:19:09;28.63;;;26.60;;
10269;SDS011;5180;50.832;5.390;2022-08-21T02:21:35;26.95;;;25.25;;
10269;SDS011;5180;50.832;5.390;2022-08-21T02:24:01;23.23;;;21.63;;
10269;SDS011;5180;50.832;5.390;2022-08-21T02:26:27;24.80;;;23.15;;
10269;SDS011;5180;50.832;5.390;2022-08-21T02:28:53;27.27;;;24.80;;
10269;SDS011;5180;50.832;5.390;2022-08-21T02:31:18;23.95;;;22.52;;
10269;SDS011;5180;50.832;5.390;2022-08-21T02:33:44;26.52;;;24.63;;
10269;SDS011;5180;50.832;5.390;2022-08-21T02:36:10;24.10;;;22.60;;
10269;SDS011;5180;50.832;5.390;2022-08-21T02:38:37;25.77;;;24.13;;
10269;SDS011;5180;50.832;5.390;2022-08-21T02:41:05;22.73;;;21.08;;
10269;SDS011;5180;50.832;5.390;2022-08-21T02:43:32;21.85;;;20.33;;
10269;SDS011;5180;50.832;5.390;2022-08-21T02:45:58;19.13;;;17.83;;
10269;SDS011;5180;50.832;5.390;2022-08-21T02:48:26;21.15;;;19.63;;
10269;SDS011;5180;50.832;5.390;2022-08-21T02:50:55;21.15;;;19.65;;
10269;SDS011;5180;50.832;5.390;2022-08-21T02:53:23;22.38;;;20.92;;
10269;SDS011;5180;50.832;5.390;2022-08-21T02:55:49;28.02;;;25.85;;
10269;SDS011;5180;50.832;5.390;2022-08-21T02:58:17;25.13;;;23.38;;
10269;SDS011;5180;50.832;5.390;2022-08-21T03:00:46;18.30;;;16.98;;
10269;SDS011;5180;50.832;5.390;2022-08-21T03:03:11;21.65;;;20.25;;
10269;SDS011;5180;50.832;5.390;2022-08-21T03:05:39;20.77;;;19.48;;
10269;SDS011;5180;50.832;5.390;2022-08-21T03:08:06;24.33;;;22.58;;
10269;SDS011;5180;50.832;5.390;2022-08-21T03:10:35;25.23;;;23.52;;
10269;SDS011;5180;50.832;5.390;2022-08-21T03:13:02;26.40;;;24.60;;
10269;SDS011;5180;50.832;5.390;2022-08-21T03:15:28;25.83;;;24.02;;
10269;SDS011;5180;50.832;5.390;2022-08-21T03:17:54;23.45;;;22.13;;
10269;SDS011;5180;50.832;5.390;2022-08-21T03:20:21;21.80;;;20.35;;
10269;SDS011;5180;50.832;5.390;2022-08-21T03:22:49;20.05;;;18.45;;
10269;SDS011;5180;50.832;5.390;2022-08-21T03:25:15;17.45;;;16.30;;
10269;SDS011;5180;50.832;5.390;2022-08-21T03:27:42;20.77;;;19.30;;
10269;SDS011;5180;50.832;5.390;2022-08-21T03:30:08;21.23;;;20.00;;
10269;SDS011;5180;50.832;5.390;2022-08-21T03:32:35;19.02;;;17.63;;
10269;SDS011;5180;50.832;5.390;2022-08-21T03:35:01;19.02;;;17.85;;
10269;SDS011;5180;50.832;5.390;2022-08-21T03:37:27;20.65;;;18.95;;
10269;SDS011;5180;50.832;5.390;2022-08-21T03:39:53;23.98;;;22.50;;
10269;SDS011;5180;50.832;5.390;2022-08-21T03:42:19;25.17;;;23.40;;
10269;SDS011;5180;50.832;5.390;2022-08-21T03:44:45;25.40;;;23.90;;
10269;SDS011;5180;50.832;5.390;2022-08-21T03:47:10;24.63;;;22.98;;
10269;SDS011;5180;50.832;5.390;2022-08-21T03:49:36;20.92;;;19.52;;
10269;SDS011;5180;50.832;5.390;2022-08-21T03:52:02;25.58;;;23.90;;
10269;SDS011;5180;50.832;5.390;2022-08-21T03:54:29;28.30;;;26.38;;
10269;SDS011;5180;50.832;5.390;2022-08-21T03:56:55;26.27;;;24.58;;
10269;SDS011;5180;50.832;5.390;2022-08-21T03:59:21;24.58;;;22.85;;
10269;SDS011;5180;50.832;5.390;2022-08-21T04:01:51;22.13;;;20.73;;
10269;SDS011;5180;50.832;5.390;2022-08-21T04:04:21;20.10;;;18.80;;
10269;SDS011;5180;50.832;5.390;2022-08-21T04:06:47;17.55;;;16.33;;
10269;SDS011;5180;50.832;5.390;2022-08-21T04:09:14;17.13;;;15.98;;
10269;SDS011;5180;50.832;5.390;2022-08-21T04:11:40;19.52;;;18.15;;
10269;SDS011;5180;50.832;5.390;2022-08-21T04:14:06;18.25;;;16.65;;
10269;SDS011;5180;50.832;5.390;2022-08-21T04:16:32;23.60;;;21.92;;
10269;SDS011;5180;50.832;5.390;2022-08-21T04:18:57;23.33;;;21.70;;
10269;SDS011;5180;50.832;5.390;2022-08-21T04:21:23;24.58;;;23.10;;
10269;SDS011;5180;50.832;5.390;2022-08-21T04:23:49;21.13;;;19.50;;
10269;SDS011;5180;50.832;5.390;2022-08-21T04:26:15;16.20;;;15.00;;
10269;SDS011;5180;50.832;5.390;2022-08-21T04:28:40;13.10;;;12.02;;
10269;SDS011;5180;50.832;5.390;2022-08-21T04:31:06;12.27;;;11.18;;
10269;SDS011;5180;50.832;5.390;2022-08-21T04:33:33;12.32;;;11.30;;
10269;SDS011;5180;50.832;5.390;2022-08-21T04:35:59;10.57;;;9.75;;
10269;SDS011;5180;50.832;5.390;2022-08-21T04:38:25;12.27;;;11.15;;
10269;SDS011;5180;50.832;5.390;2022-08-21T04:40:51;13.02;;;12.13;;
10269;SDS011;5180;50.832;5.390;2022-08-21T04:43:17;13.07;;;12.18;;
10269;SDS011;5180;50.832;5.390;2022-08-21T04:45:46;11.70;;;10.90;;
10269;SDS011;5180;50.832;5.390;2022-08-21T04:48:13;22.80;;;20.80;;
10269;SDS011;5180;50.832;5.390;2022-08-21T04:53:34;21.15;;;19.35;;
10269;SDS011;5180;50.832;5.390;2022-08-21T04:56:05;20.77;;;19.38;;
10269;SDS011;5180;50.832;5.390;2022-08-21T04:58:34;32.38;;;30.50;;
10269;SDS011;5180;50.832;5.390;2022-08-21T05:01:02;25.55;;;23.80;;
10269;SDS011;5180;50.832;5.390;2022-08-21T05:03:30;28.33;;;26.67;;
10269;SDS011;5180;50.832;5.390;2022-08-21T05:05:59;24.25;;;22.65;;
10269;SDS011;5180;50.832;5.390;2022-08-21T05:08:25;22.42;;;20.38;;
10269;SDS011;5180;50.832;5.390;2022-08-21T05:10:52;21.80;;;20.38;;
10269;SDS011;5180;50.832;5.390;2022-08-21T05:13:19;13.55;;;12.55;;
10269;SDS011;5180;50.832;5.390;2022-08-21T05:15:45;8.20;;;7.40;;
10269;SDS011;5180;50.832;5.390;2022-08-21T05:18:10;9.70;;;8.90;;
10269;SDS011;5180;50.832;5.390;2022-08-21T05:20:36;10.98;;;10.02;;
10269;SDS011;5180;50.832;5.390;2022-08-21T05:23:06;9.98;;;8.85;;
10269;SDS011;5180;50.832;5.390;2022-08-21T05:25:33;10.32;;;9.10;;
10269;SDS011;5180;50.832;5.390;2022-08-21T05:27:59;10.88;;;9.10;;
10269;SDS011;5180;50.832;5.390;2022-08-21T05:30:24;9.70;;;8.38;;
10269;SDS011;5180;50.832;5.390;2022-08-21T05:32:55;7.82;;;7.13;;
10269;SDS011;5180;50.832;5.390;2022-08-21T05:35:21;6.60;;;5.60;;
10269;SDS011;5180;50.832;5.390;2022-08-21T05:37:47;7.10;;;5.65;;
10269;SDS011;5180;50.832;5.390;2022-08-21T05:40:13;7.90;;;7.15;;
10269;SDS011;5180;50.832;5.390;2022-08-21T05:42:39;5.43;;;5.00;;
10269;SDS011;5180;50.832;5.390;2022-08-21T05:45:04;5.38;;;4.90;;
10269;SDS011;5180;50.832;5.390;2022-08-21T05:47:30;9.38;;;8.63;;
10269;SDS011;5180;50.832;5.390;2022-08-21T05:49:56;11.73;;;10.95;;
10269;SDS011;5180;50.832;5.390;2022-08-21T05:52:22;17.00;;;15.55;;
10269;SDS011;5180;50.832;5.390;2022-08-21T05:54:48;23.92;;;22.42;;
10269;SDS011;5180;50.832;5.390;2022-08-21T05:57:14;14.52;;;13.30;;
10269;SDS011;5180;50.832;5.390;2022-08-21T05:59:40;11.00;;;10.10;;
10269;SDS011;5180;50.832;5.390;2022-08-21T06:02:05;11.65;;;10.75;;
10269;SDS011;5180;50.832;5.390;2022-08-21T06:04:36;9.50;;;8.70;;
10269;SDS011;5180;50.832;5.390;2022-08-21T06:07:03;9.00;;;7.97;;
10269;SDS011;5180;50.832;5.390;2022-08-21T06:09:29;10.75;;;9.57;;
10269;SDS011;5180;50.832;5.390;2022-08-21T06:11:55;15.20;;;14.25;;
10269;SDS011;5180;50.832;5.390;2022-08-21T06:14:21;15.07;;;13.90;;
10269;SDS011;5180;50.832;5.390;2022-08-21T06:16:46;16.40;;;15.02;;
10269;SDS011;5180;50.832;5.390;2022-08-21T06:19:12;18.48;;;17.15;;
10269;SDS011;5180;50.832;5.390;2022-08-21T06:21:38;7.07;;;6.30;;
10269;SDS011;5180;50.832;5.390;2022-08-21T06:24:04;10.40;;;9.32;;
10269;SDS011;5180;50.832;5.390;2022-08-21T06:26:30;14.55;;;13.45;;
10269;SDS011;5180;50.832;5.390;2022-08-21T06:28:56;7.20;;;4.10;;
10269;SDS011;5180;50.832;5.390;2022-08-21T06:31:23;8.50;;;6.50;;
10269;SDS011;5180;50.832;5.390;2022-08-21T06:33:50;14.90;;;14.00;;
10269;SDS011;5180;50.832;5.390;2022-08-21T06:36:16;18.73;;;17.23;;
10269;SDS011;5180;50.832;5.390;2022-08-21T06:38:42;19.83;;;18.33;;
10269;SDS011;5180;50.832;5.390;2022-08-21T06:41:08;6.07;;;5.03;;
10269;SDS011;5180;50.832;5.390;2022-08-21T06:43:34;8.93;;;8.05;;
10269;SDS011;5180;50.832;5.390;2022-08-21T06:45:59;16.20;;;14.80;;
10269;SDS011;5180;50.832;5.390;2022-08-21T06:48:25;6.57;;;4.18;;
10269;SDS011;5180;50.832;5.390;2022-08-21T06:50:51;9.07;;;4.70;;
10269;SDS011;5180;50.832;5.390;2022-08-21T06:53:18;6.43;;;4.25;;
10269;SDS011;5180;50.832;5.390;2022-08-21T06:55:45;7.57;;;4.93;;
10269;SDS011;5180;50.832;5.390;2022-08-21T06:58:11;6.32;;;4.63;;
10269;SDS011;5180;50.832;5.390;2022-08-21T07:00:41;8.68;;;6.00;;
10269;SDS011;5180;50.832;5.390;2022-08-21T07:03:19;8.60;;;7.80;;
10269;SDS011;5180;50.832;5.390;2022-08-21T07:05:47;8.00;;;3.67;;
10269;SDS011;5180;50.832;5.390;2022-08-21T07:08:13;6.55;;;5.93;;
10269;SDS011;5180;50.832;5.390;2022-08-21T07:10:39;4.50;;;4.10;;
10269;SDS011;5180;50.832;5.390;2022-08-21T07:13:04;6.60;;;2.60;;
10269;SDS011;5180;50.832;5.390;2022-08-21T07:15:30;5.57;;;1.90;;
10269;SDS011;5180;50.832;5.390;2022-08-21T07:17:57;3.45;;;1.60;;
10269;SDS011;5180;50.832;5.390;2022-08-21T07:20:23;5.93;;;1.88;;
10269;SDS011;5180;50.832;5.390;2022-08-21T07:22:49;4.93;;;1.60;;
10269;SDS011;5180;50.832;5.390;2022-08-21T07:25:15;2.92;;;1.58;;
10269;SDS011;5180;50.832;5.390;2022-08-21T07:27:41;4.32;;;1.50;;
10269;SDS011;5180;50.832;5.390;2022-08-21T07:30:06;4.70;;;1.60;;
10269;SDS011;5180;50.832;5.390;2022-08-21T07:32:32;2.95;;;1.45;;
10269;SDS011;5180;50.832;5.390;2022-08-21T07:34:58;3.95;;;1.65;;
10269;SDS011;5180;50.832;5.390;2022-08-21T07:37:24;5.22;;;1.60;;
10269;SDS011;5180;50.832;5.390;2022-08-21T07:39:49;2.13;;;1.20;;
10269;SDS011;5180;50.832;5.390;2022-08-21T07:42:16;4.60;;;1.63;;
10269;SDS011;5180;50.832;5.390;2022-08-21T07:44:42;4.18;;;1.70;;
10269;SDS011;5180;50.832;5.390;2022-08-21T07:47:08;3.70;;;1.50;;
10269;SDS011;5180;50.832;5.390;2022-08-21T07:49:33;3.85;;;1.60;;
10269;SDS011;5180;50.832;5.390;2022-08-21T07:51:59;4.40;;;1.40;;
10269;SDS011;5180;50.832;5.390;2022-08-21T07:54:26;3.70;;;1.30;;
10269;SDS011;5180;50.832;5.390;2022-08-21T07:56:52;5.20;;;1.13;;
10269;SDS011;5180;50.832;5.390;2022-08-21T07:59:17;2.67;;;1.23;;
10269;SDS011;5180;50.832;5.390;2022-08-21T08:01:43;4.13;;;1.42;;
10269;SDS011;5180;50.832;5.390;2022-08-21T08:04:09;2.10;;;1.13;;
10269;SDS011;5180;50.832;5.390;2022-08-21T08:06:34;3.00;;;1.20;;
10269;SDS011;5180;50.832;5.390;2022-08-21T08:09:00;2.60;;;1.23;;
10269;SDS011;5180;50.832;5.390;2022-08-21T08:11:28;2.58;;;1.35;;
10269;SDS011;5180;50.832;5.390;2022-08-21T08:13:55;2.28;;;1.33;;
10269;SDS011;5180;50.832;5.390;2022-08-21T08:16:24;3.75;;;1.20;;
10269;SDS011;5180;50.832;5.390;2022-08-21T08:18:50;2.58;;;1.13;;
10269;SDS011;5180;50.832;5.390;2022-08-21T08:21:16;3.90;;;1.55;;
10269;SDS011;5180;50.832;5.390;2022-08-21T08:23:43;3.10;;;1.20;;
10269;SDS011;5180;50.832;5.390;2022-08-21T08:26:10;4.00;;;1.25;;
10269;SDS011;5180;50.832;5.390;2022-08-21T08:28:36;1.63;;;1.20;;
10269;SDS011;5180;50.832;5.390;2022-08-21T08:31:02;2.08;;;1.08;;
10269;SDS011;5180;50.832;5.390;2022-08-21T08:33:28;3.92;;;1.30;;
10269;SDS011;5180;50.832;5.390;2022-08-21T08:35:54;2.08;;;1.20;;
10269;SDS011;5180;50.832;5.390;2022-08-21T08:38:20;4.30;;;1.20;;
10269;SDS011;5180;50.832;5.390;2022-08-21T08:43:46;1.70;;;1.00;;
10269;SDS011;5180;50.832;5.390;2022-08-21T08:46:16;2.40;;;1.15;;
10269;SDS011;5180;50.832;5.390;2022-08-21T08:48:57;3.35;;;1.33;;
10269;SDS011;5180;50.832;5.390;2022-08-21T08:51:47;4.68;;;1.35;;
10269;SDS011;5180;50.832;5.390;2022-08-21T08:54:28;4.28;;;1.30;;
10269;SDS011;5180;50.832;5.390;2022-08-21T08:57:10;4.20;;;1.30;;
10269;SDS011;5180;50.832;5.390;2022-08-21T08:59:42;4.63;;;1.15;;
10269;SDS011;5180;50.832;5.390;2022-08-21T09:02:11;4.63;;;1.30;;
10269;SDS011;5180;50.832;5.390;2022-08-21T09:04:37;1.20;;;0.95;;
10269;SDS011;5180;50.832;5.390;2022-08-21T09:10:13;1.55;;;0.90;;
10269;SDS011;5180;50.832;5.390;2022-08-21T09:21:00;2.08;;;1.00;;
10269;SDS011;5180;50.832;5.390;2022-08-21T09:23:42;2.25;;;0.90;;
10269;SDS011;5180;50.832;5.390;2022-08-21T09:26:16;3.42;;;1.20;;
10269;SDS011;5180;50.832;5.390;2022-08-21T09:28:45;4.63;;;1.05;;
10269;SDS011;5180;50.832;5.390;2022-08-21T09:31:26;3.97;;;1.10;;
10269;SDS011;5180;50.832;5.390;2022-08-21T09:34:01;1.90;;;1.00;;
10269;SDS011;5180;50.832;5.390;2022-08-21T09:36:42;2.58;;;1.10;;
10269;SDS011;5180;50.832;5.390;2022-08-21T09:39:11;3.55;;;1.10;;
10269;SDS011;5180;50.832;5.390;2022-08-21T09:41:38;2.28;;;1.00;;
10269;SDS011;5180;50.832;5.390;2022-08-21T09:44:05;3.63;;;1.00;;
10269;SDS011;5180;50.832;5.390;2022-08-21T09:46:33;4.20;;;1.20;;
10269;SDS011;5180;50.832;5.390;2022-08-21T09:48:59;3.20;;;1.35;;
10269;SDS011;5180;50.832;5.390;2022-08-21T09:51:31;3.78;;;1.27;;
10269;SDS011;5180;50.832;5.390;2022-08-21T09:56:32;2.25;;;1.15;;
10269;SDS011;5180;50.832;5.390;2022-08-21T09:59:29;2.63;;;1.13;;
10269;SDS011;5180;50.832;5.390;2022-08-21T10:01:57;4.22;;;1.33;;
10269;SDS011;5180;50.832;5.390;2022-08-21T10:04:30;1.92;;;1.10;;
10269;SDS011;5180;50.832;5.390;2022-08-21T10:07:10;1.92;;;1.10;;
10269;SDS011;5180;50.832;5.390;2022-08-21T10:09:39;2.83;;;1.10;;
10269;SDS011;5180;50.832;5.390;2022-08-21T10:14:47;3.67;;;1.25;;
10269;SDS011;5180;50.832;5.390;2022-08-21T10:20:07;2.05;;;1.10;;
10269;SDS011;5180;50.832;5.390;2022-08-21T10:28:26;4.40;;;1.10;;
10269;SDS011;5180;50.832;5.390;2022-08-21T10:31:22;2.88;;;1.20;;
10269;SDS011;5180;50.832;5.390;2022-08-21T10:34:17;1.98;;;1.08;;
10269;SDS011;5180;50.832;5.390;2022-08-21T10:39:36;2.85;;;1.02;;
10269;SDS011;5180;50.832;5.390;2022-08-21T10:47:41;3.40;;;1.15;;
10269;SDS011;5180;50.832;5.390;2022-08-21T10:50:31;2.63;;;1.00;;
10269;SDS011;5180;50.832;5.390;2022-08-21T10:53:05;3.70;;;1.10;;
10269;SDS011;5180;50.832;5.390;2022-08-21T10:58:30;2.40;;;1.00;;
10269;SDS011;5180;50.832;5.390;2022-08-21T11:01:07;2.25;;;0.85;;
10269;SDS011;5180;50.832;5.390;2022-08-21T11:03:43;4.32;;;1.20;;
10269;SDS011;5180;50.832;5.390;2022-08-21T11:06:18;3.15;;;1.02;;
10269;SDS011;5180;50.832;5.390;2022-08-21T11:08:55;2.45;;;1.15;;
10269;SDS011;5180;50.832;5.390;2022-08-21T11:11:27;4.15;;;1.30;;
10269;SDS011;5180;50.832;5.390;2022-08-21T11:14:00;3.65;;;1.05;;
10269;SDS011;5180;50.832;5.390;2022-08-21T11:16:36;4.72;;;1.30;;
10269;SDS011;5180;50.832;5.390;2022-08-21T11:27:01;5.97;;;1.20;;
10269;SDS011;5180;50.832;5.390;2022-08-21T11:29:35;4.07;;;1.13;;
10269;SDS011;5180;50.832;5.390;2022-08-21T11:32:20;4.40;;;1.40;;
10269;SDS011;5180;50.832;5.390;2022-08-21T11:45:54;2.78;;;1.20;;
10269;SDS011;5180;50.832;5.390;2022-08-21T11:51:07;2.88;;;1.30;;
10269;SDS011;5180;50.832;5.390;2022-08-21T11:53:46;2.50;;;1.00;;
10269;SDS011;5180;50.832;5.390;2022-08-21T11:59:10;3.47;;;1.15;;
10269;SDS011;5180;50.832;5.390;2022-08-21T12:01:43;5.18;;;1.08;;
10269;SDS011;5180;50.832;5.390;2022-08-21T12:06:41;5.65;;;1.20;;
10269;SDS011;5180;50.832;5.390;2022-08-21T12:09:28;3.95;;;1.20;;
10269;SDS011;5180;50.832;5.390;2022-08-21T12:12:09;3.08;;;1.27;;
10269;SDS011;5180;50.832;5.390;2022-08-21T12:14:37;4.75;;;1.08;;
10269;SDS011;5180;50.832;5.390;2022-08-21T12:17:08;4.63;;;1.40;;
10269;SDS011;5180;50.832;5.390;2022-08-21T12:20:15;3.65;;;1.30;;
10269;SDS011;5180;50.832;5.390;2022-08-21T12:25:38;3.88;;;1.25;;
10269;SDS011;5180;50.832;5.390;2022-08-21T12:28:14;4.45;;;1.13;;
10269;SDS011;5180;50.832;5.390;2022-08-21T12:30:46;4.72;;;1.08;;
10269;SDS011;5180;50.832;5.390;2022-08-21T12:36:13;5.30;;;1.08;;
10269;SDS011;5180;50.832;5.390;2022-08-21T12:38:47;3.25;;;1.40;;
10269;SDS011;5180;50.832;5.390;2022-08-21T12:41:28;4.75;;;1.20;;
10269;SDS011;5180;50.832;5.390;2022-08-21T12:44:08;3.45;;;1.15;;
10269;SDS011;5180;50.832;5.390;2022-08-21T12:46:48;3.45;;;1.17;;
10269;SDS011;5180;50.832;5.390;2022-08-21T12:49:37;4.80;;;1.50;;
10269;SDS011;5180;50.832;5.390;2022-08-21T12:52:16;3.25;;;1.05;;
10269;SDS011;5180;50.832;5.390;2022-08-21T12:54:46;4.93;;;1.40;;
10269;SDS011;5180;50.832;5.390;2022-08-21T12:57:22;3.90;;;1.20;;
10269;SDS011;5180;50.832;5.390;2022-08-21T12:59:54;4.53;;;1.17;;
10269;SDS011;5180;50.832;5.390;2022-08-21T13:02:35;3.65;;;1.20;;
10269;SDS011;5180;50.832;5.390;2022-08-21T13:05:04;6.35;;;1.30;;
10269;SDS011;5180;50.832;5.390;2022-08-21T13:07:33;4.10;;;1.35;;
10269;SDS011;5180;50.832;5.390;2022-08-21T13:10:21;3.75;;;1.40;;
10269;SDS011;5180;50.832;5.390;2022-08-21T13:13:00;5.20;;;1.30;;
10269;SDS011;5180;50.832;5.390;2022-08-21T13:15:36;2.80;;;1.20;;
10269;SDS011;5180;50.832;5.390;2022-08-21T13:18:06;3.58;;;1.40;;
10269;SDS011;5180;50.832;5.390;2022-08-21T13:20:36;2.33;;;0.90;;
10269;SDS011;5180;50.832;5.390;2022-08-21T13:25:53;5.88;;;1.30;;
10269;SDS011;5180;50.832;5.390;2022-08-21T13:28:20;4.45;;;1.23;;
10269;SDS011;5180;50.832;5.390;2022-08-21T13:30:47;5.30;;;1.20;;
10269;SDS011;5180;50.832;5.390;2022-08-21T13:33:15;3.35;;;1.23;;
10269;SDS011;5180;50.832;5.390;2022-08-21T13:38:22;4.70;;;1.50;;
10269;SDS011;5180;50.832;5.390;2022-08-21T13:40:51;5.85;;;1.20;;
10269;SDS011;5180;50.832;5.390;2022-08-21T13:43:22;3.38;;;1.30;;
10269;SDS011;5180;50.832;5.390;2022-08-21T13:45:54;3.45;;;1.35;;
10269;SDS011;5180;50.832;5.390;2022-08-21T13:48:21;5.50;;;1.67;;
10269;SDS011;5180;50.832;5.390;2022-08-21T13:50:51;2.60;;;1.63;;
10269;SDS011;5180;50.832;5.390;2022-08-21T13:53:22;4.82;;;1.50;;
10269;SDS011;5180;50.832;5.390;2022-08-21T13:55:48;4.57;;;1.10;;
10269;SDS011;5180;50.832;5.390;2022-08-21T13:58:23;2.65;;;1.13;;
10269;SDS011;5180;50.832;5.390;2022-08-21T14:00:50;4.75;;;1.25;;
10269;SDS011;5180;50.832;5.390;2022-08-21T14:03:30;4.88;;;1.23;;
10269;SDS011;5180;50.832;5.390;2022-08-21T14:05:56;4.28;;;1.40;;
10269;SDS011;5180;50.832;5.390;2022-08-21T14:08:35;4.78;;;1.50;;
10269;SDS011;5180;50.832;5.390;2022-08-21T14:11:03;2.03;;;1.00;;
10269;SDS011;5180;50.832;5.390;2022-08-21T14:13:41;5.68;;;1.42;;
10269;SDS011;5180;50.832;5.390;2022-08-21T14:16:20;3.92;;;1.42;;
10269;SDS011;5180;50.832;5.390;2022-08-21T14:18:52;2.88;;;1.17;;
10269;SDS011;5180;50.832;5.390;2022-08-21T14:21:27;3.75;;;1.20;;
10269;SDS011;5180;50.832;5.390;2022-08-21T14:24:06;3.25;;;1.15;;
10269;SDS011;5180;50.832;5.390;2022-08-21T14:26:33;3.10;;;1.10;;
10269;SDS011;5180;50.832;5.390;2022-08-21T14:29:01;3.80;;;1.30;;
10269;SDS011;5180;50.832;5.390;2022-08-21T14:31:31;4.18;;;1.48;;
10269;SDS011;5180;50.832;5.390;2022-08-21T14:33:59;2.72;;;1.20;;
10269;SDS011;5180;50.832;5.390;2022-08-21T14:36:25;3.22;;;1.10;;
10269;SDS011;5180;50.832;5.390;2022-08-21T14:38:51;5.97;;;1.23;;
10269;SDS011;5180;50.832;5.390;2022-08-21T14:41:21;3.95;;;1.20;;
10269;SDS011;5180;50.832;5.390;2022-08-21T14:43:49;2.35;;;1.20;;
10269;SDS011;5180;50.832;5.390;2022-08-21T14:46:23;3.67;;;1.23;;
10269;SDS011;5180;50.832;5.390;2022-08-21T14:48:51;2.50;;;1.05;;
10269;SDS011;5180;50.832;5.390;2022-08-21T14:51:17;4.50;;;1.38;;
10269;SDS011;5180;50.832;5.390;2022-08-21T14:53:42;3.38;;;1.05;;
10269;SDS011;5180;50.832;5.390;2022-08-21T14:56:09;2.80;;;1.23;;
10269;SDS011;5180;50.832;5.390;2022-08-21T14:58:40;3.35;;;1.27;;
10269;SDS011;5180;50.832;5.390;2022-08-21T15:01:08;3.97;;;1.13;;
10269;SDS011;5180;50.832;5.390;2022-08-21T15:03:35;7.10;;;1.42;;
10269;SDS011;5180;50.832;5.390;2022-08-21T15:06:02;3.05;;;1.20;;
10269;SDS011;5180;50.832;5.390;2022-08-21T15:08:29;5.78;;;1.35;;
10269;SDS011;5180;50.832;5.390;2022-08-21T15:10:54;3.70;;;1.33;;
10269;SDS011;5180;50.832;5.390;2022-08-21T15:13:21;5.97;;;1.40;;
10269;SDS011;5180;50.832;5.390;2022-08-21T15:15:48;3.47;;;1.17;;
10269;SDS011;5180;50.832;5.390;2022-08-21T15:18:17;2.58;;;1.30;;
10269;SDS011;5180;50.832;5.390;2022-08-21T15:20:47;2.92;;;1.13;;
10269;SDS011;5180;50.832;5.390;2022-08-21T15:23:12;4.72;;;1.23;;
10269;SDS011;5180;50.832;5.390;2022-08-21T15:25:40;3.65;;;1.50;;
10269;SDS011;5180;50.832;5.390;2022-08-21T15:28:07;3.15;;;1.02;;
10269;SDS011;5180;50.832;5.390;2022-08-21T15:30:34;3.55;;;1.23;;
10269;SDS011;5180;50.832;5.390;2022-08-21T15:33:01;2.83;;;1.10;;
10269;SDS011;5180;50.832;5.390;2022-08-21T15:35:26;4.95;;;1.40;;
10269;SDS011;5180;50.832;5.390;2022-08-21T15:37:52;3.38;;;1.50;;
10269;SDS011;5180;50.832;5.390;2022-08-21T15:40:18;4.00;;;1.17;;
10269;SDS011;5180;50.832;5.390;2022-08-21T15:42:43;3.47;;;1.50;;
10269;SDS011;5180;50.832;5.390;2022-08-21T15:45:10;3.90;;;1.30;;
10269;SDS011;5180;50.832;5.390;2022-08-21T15:47:37;4.10;;;1.33;;
10269;SDS011;5180;50.832;5.390;2022-08-21T15:50:05;4.38;;;1.27;;
10269;SDS011;5180;50.832;5.390;2022-08-21T15:52:32;2.13;;;1.10;;
10269;SDS011;5180;50.832;5.390;2022-08-21T15:54:58;3.78;;;1.38;;
10269;SDS011;5180;50.832;5.390;2022-08-21T15:57:24;3.60;;;1.30;;
10269;SDS011;5180;50.832;5.390;2022-08-21T15:59:51;5.22;;;1.15;;
10269;SDS011;5180;50.832;5.390;2022-08-21T16:02:26;2.90;;;1.20;;
10269;SDS011;5180;50.832;5.390;2022-08-21T16:04:55;3.78;;;1.10;;
10269;SDS011;5180;50.832;5.390;2022-08-21T16:07:21;8.00;;;1.45;;
10269;SDS011;5180;50.832;5.390;2022-08-21T16:09:47;3.58;;;1.10;;
10269;SDS011;5180;50.832;5.390;2022-08-21T16:12:17;3.75;;;1.30;;
10269;SDS011;5180;50.832;5.390;2022-08-21T16:14:47;4.57;;;1.23;;
10269;SDS011;5180;50.832;5.390;2022-08-21T16:17:14;3.30;;;1.20;;
10269;SDS011;5180;50.832;5.390;2022-08-21T16:19:40;4.75;;;1.10;;
10269;SDS011;5180;50.832;5.390;2022-08-21T16:22:06;4.03;;;1.30;;